Time;durP1;ratioP1;P1;durP2;ratioP2;P2;SDS_P1;SDS_P2;PMS_P1;PMS_P2;Temp;Humidity;BMP_temperature;BMP_pressure;BME280_temperature;BME280_humidity;BME280_pressure;Samples;Min_cycle;Max_cycle;Signal;HPM_P1;HPM_P2
2023/03/31 00:00:11;;;;;;;0.00;0.00;;;;;;;-145.06;100.00;99618.09;10438960;28;20017;-81
2023/03/31 00:05:16;;;;;;;0.10;0.10;;;;;;;-145.06;100.00;99613.97;10411751;28;20442;-82
2023/03/31 00:10:18;;;;;;;0.10;0.10;;;;;;;-145.06;100.00;99613.97;10442633;28;20024;-81
2023/03/31 00:15:19;;;;;;;0.10;0.10;;;;;;;-145.06;100.00;99626.28;10416649;28;20021;-84
2023/03/31 00:20:19;;;;;;;0.10;0.10;;;;;;;-145.06;100.00;99636.50;10432925;28;20029;-82
2023/03/31 00:25:19;;;;;;;0.10;0.10;;;;;;;-145.06;100.00;99650.84;10418035;28;20032;-82
2023/03/31 00:30:20;;;;;;;0.10;0.10;;;;;;;-145.06;100.00;99616.03;10436593;28;20039;-83
2023/03/31 00:35:20;;;;;;;0.10;0.10;;;;;;;-145.06;100.00;99632.41;10435448;28;20029;-82
2023/03/31 00:40:20;;;;;;;0.10;0.10;;;;;;;-145.06;100.00;99642.66;10431132;28;20272;-84
2023/03/31 00:45:26;;;;;;;0.10;0.10;;;;;;;-145.06;100.00;99704.13;10417022;28;20120;-83
2023/03/31 00:50:31;;;;;;;0.00;0.00;;;;;;;-145.06;100.00;99763.53;10420124;28;20194;-85
2023/03/31 00:55:40;;;;;;;0.10;0.10;;;;;;;-145.06;100.00;99667.25;10441056;28;20051;-85
2023/03/31 01:00:41;;;;;;;0.10;0.10;;;;;;;-145.06;100.00;99724.59;10417520;28;20021;-82
2023/03/31 01:05:49;;;;;;;0.10;0.10;;;;;;;-145.06;100.00;99695.91;10427967;28;20370;-84
2023/03/31 01:10:55;;;;;;;0.10;0.10;;;;;;;-145.06;100.00;99685.69;10426769;22;20041;-82
2023/03/31 01:15:55;;;;;;;0.10;0.10;;;;;;;-145.06;100.00;99751.22;10343051;28;20049;-83
2023/03/31 01:21:24;;;;;;;0.10;0.10;;;;;;;-145.06;100.00;99700.00;10345774;28;20030;-82
2023/03/31 01:26:52;;;;;;;0.10;0.10;;;;;;;-145.06;100.00;99710.25;10335531;28;20052;-82
2023/03/31 01:32:06;;;;;;;0.10;0.10;;;;;;;-145.06;100.00;99659.06;10337511;28;20041;-82
2023/03/31 01:37:24;;;;;;;0.10;0.10;;;;;;;-145.06;100.00;99704.13;10337012;28;20042;-82
2023/03/31 01:42:45;;;;;;;0.00;0.00;;;;;;;-145.06;100.00;99718.44;10323350;28;20038;-82
2023/03/31 01:48:01;;;;;;;0.10;0.10;;;;;;;-145.06;100.00;99675.44;10337575;28;20068;-82
2023/03/31 01:53:32;;;;;;;0.10;0.10;;;;;;;-145.06;100.00;99712.31;10335663;28;20033;-82
2023/03/31 01:58:48;;;;;;;0.10;0.10;;;;;;;-145.06;100.00;99689.78;10315252;28;20069;-82
2023/03/31 02:04:17;;;;;;;0.10;0.10;;;;;;;-145.06;100.00;99757.38;10333522;28;20034;-82
2023/03/31 02:09:25;;;;;;;0.10;0.10;;;;;;;-145.06;100.00;99700.00;10326075;28;20046;-82
2023/03/31 02:14:30;;;;;;;0.08;0.08;;;;;;;-145.06;100.00;99708.22;10331379;28;20049;-82
2023/03/31 02:19:34;;;;;;;0.10;0.10;;;;;;;-145.06;100.00;99720.50;10345462;28;20109;-81
2023/03/31 02:24:37;;;;;;;0.10;0.10;;;;;;;-145.06;100.00;99712.31;10334409;28;20077;-82
2023/03/31 02:29:37;;;;;;;0.05;0.05;;;;;;;-145.06;100.00;99691.81;10324148;28;20121;-82
2023/03/31 02:34:38;;;;;;;0.10;0.10;;;;;;;-145.06;100.00;99702.06;10323928;28;20109;-82
2023/03/31 02:39:42;;;;;;;0.03;0.03;;;;;;;-145.06;100.00;99722.56;10327315;28;20089;-82
2023/03/31 02:44:42;;;;;;;0.00;0.00;;;;;;;-145.06;100.00;99706.16;10342531;28;20044;-83
2023/03/31 02:49:51;;;;;;;0.10;0.10;;;;;;;-145.06;100.00;99714.34;10325666;28;20441;-82
2023/03/31 02:55:05;;;;;;;0.00;0.00;;;;;;;-145.06;100.00;99753.28;10344965;28;20082;-82
2023/03/31 03:00:19;;;;;;;0.10;0.10;;;;;;;-145.06;100.00;99728.69;10363784;28;20052;-82
2023/03/31 03:05:24;;;;;;;0.10;0.10;;;;;;;-145.06;100.00;99757.38;10339868;28;20101;-82
2023/03/31 03:10:55;;;;;;;0.03;0.03;;;;;;;-145.06;100.00;99728.69;10346199;28;20077;-82
2023/03/31 03:16:12;;;;;;;0.10;0.10;;;;;;;-145.06;100.00;99714.34;10343193;28;20109;-82
2023/03/31 03:21:12;;;;;;;0.10;0.10;;;;;;;-145.06;100.00;99706.16;10332981;28;20109;-81
2023/03/31 03:26:13;;;;;;;0.10;0.10;;;;;;;-145.06;100.00;99714.34;10335029;28;20474;-82
2023/03/31 03:31:14;;;;;;;0.10;0.10;;;;;;;-145.06;100.00;99722.56;10323871;28;20041;-81
2023/03/31 03:36:15;;;;;;;0.10;0.10;;;;;;;-145.06;100.00;99734.84;10320225;28;20032;-82
2023/03/31 03:41:16;;;;;;;0.00;0.00;;;;;;;-145.06;100.00;99708.22;10343334;28;20015;-82
2023/03/31 03:46:16;;;;;;;0.08;0.08;;;;;;;-145.06;100.00;99751.22;10341987;28;20026;-83
2023/03/31 03:51:16;;;;;;;0.00;0.00;;;;;;;-145.06;100.00;99757.38;10339972;28;20529;-82
2023/03/31 03:56:17;;;;;;;0.10;0.10;;;;;;;-145.06;100.00;99769.66;10337231;28;20460;-82
2023/03/31 04:01:17;;;;;;;0.10;0.10;;;;;;;-145.06;100.00;99747.13;10321203;28;20463;-82
2023/03/31 04:06:17;;;;;;;0.00;0.00;;;;;;;-145.06;100.00;99745.09;10324446;28;20084;-82
2023/03/31 04:11:18;;;;;;;0.00;0.00;;;;;;;-145.06;100.00;99712.31;10342611;28;20488;-82
2023/03/31 04:16:18;;;;;;;0.10;0.10;;;;;;;-145.06;100.00;99755.31;10327547;28;20030;-81
2023/03/31 04:21:21;;;;;;;0.10;0.10;;;;;;;-145.06;100.00;99763.53;10347622;28;20021;-82
2023/03/31 04:26:29;;;;;;;0.10;0.10;;;;;;;-145.06;100.00;99728.69;10331766;28;20046;-82
2023/03/31 04:31:30;;;;;;;0.00;0.00;;;;;;;-145.06;100.00;99714.34;10333590;28;20073;-82
2023/03/31 04:36:34;;;;;;;0.10;0.10;;;;;;;-145.06;100.00;99767.63;10313109;28;20076;-82
2023/03/31 04:41:34;;;;;;;0.10;0.10;;;;;;;-145.06;100.00;99720.50;10340155;28;20022;-81
2023/03/31 04:46:34;;;;;;;0.05;0.05;;;;;;;-145.06;100.00;99814.72;10312564;28;20042;-81
2023/03/31 04:51:35;;;;;;;0.10;0.10;;;;;;;-145.06;100.00;99718.44;10338336;28;20026;-81
2023/03/31 04:56:35;;;;;;;0.00;0.00;;;;;;;-145.06;100.00;99716.41;10334978;28;20034;-82
2023/03/31 05:01:36;;;;;;;0.10;0.10;;;;;;;-145.06;100.00;99749.19;10338339;28;20034;-82
2023/03/31 05:06:36;;;;;;;0.00;0.00;;;;;;;-145.06;100.00;99781.97;10343806;28;20076;-81
2023/03/31 05:11:37;;;;;;;0.10;0.10;;;;;;;-145.06;100.00;99724.59;10324117;28;20433;-81
2023/03/31 05:16:37;;;;;;;0.00;0.00;;;;;;;-145.06;100.00;99738.94;10318514;28;20296;-81
2023/03/31 05:21:37;;;;;;;0.10;0.10;;;;;;;-145.06;100.00;99693.88;10331758;28;20015;-82
2023/03/31 05:26:38;;;;;;;0.00;0.00;;;;;;;-145.06;100.00;99630.38;10337644;28;20027;-82
2023/03/31 05:31:39;;;;;;;0.05;0.05;;;;;;;-145.06;100.00;99720.50;10327760;28;20011;-82
2023/03/31 05:36:40;;;;;;;0.10;0.10;;;;;;;-145.06;100.00;99710.25;10328347;28;20393;-82
2023/03/31 05:41:40;;;;;;;0.10;0.10;;;;;;;-145.06;100.00;99657.00;10314694;28;20521;-82
2023/03/31 05:46:40;;;;;;;0.10;0.10;;;;;;;-145.06;100.00;99700.00;10330785;28;20026;-82
2023/03/31 05:51:41;;;;;;;0.00;0.00;;;;;;;-145.06;100.00;99661.09;10314737;28;20035;-82
2023/03/31 05:56:41;;;;;;;0.10;0.10;;;;;;;-145.06;100.00;99654.94;10332158;28;20029;-82
2023/03/31 06:01:42;;;;;;;0.10;0.10;;;;;;;-145.06;100.00;99657.00;10319120;28;20808;-81
2023/03/31 06:06:43;;;;;;;0.10;0.10;;;;;;;-145.06;100.00;99607.84;10329726;28;20036;-82
2023/03/31 06:11:43;;;;;;;0.10;0.10;;;;;;;-145.06;100.00;99626.28;10330582;28;20401;-82
2023/03/31 06:16:46;;;;;;;0.10;0.10;;;;;;;-145.06;100.00;99601.69;10328299;28;20018;-82
2023/03/31 06:21:46;;;;;;;0.10;0.10;;;;;;;-145.06;100.00;99597.59;10332364;28;20118;-81
2023/03/31 06:26:49;;;;;;;0.10;0.10;;;;;;;-145.06;100.00;99499.28;10329083;28;20139;-82
2023/03/31 06:31:49;;;;;;;0.10;0.10;;;;;;;-145.06;100.00;99530.00;10313518;28;20018;-81
2023/03/31 06:36:50;;;;;;;0.00;0.00;;;;;;;-145.06;100.00;99431.69;10335644;28;20389;-81
2023/03/31 06:41:50;;;;;;;0.10;0.10;;;;;;;-145.06;100.00;98571.47;10332399;28;20022;-81
2023/03/31 06:46:51;;;;;;;0.10;0.10;;;;;;;-145.06;100.00;98364.66;10331138;28;20030;-81
2023/03/31 06:51:51;;;;;;;0.10;0.10;;;;;;;-145.06;100.00;98950.34;10318751;28;20022;-81
2023/03/31 06:56:51;;;;;;;0.00;0.00;;;;;;;-145.06;100.00;98243.84;10329456;28;20470;-81
2023/03/31 07:01:52;;;;;;;0.10;0.10;;;;;;;-145.06;100.00;98008.34;10348001;28;20023;-81
2023/03/31 07:06:52;;;;;;;0.10;0.10;;;;;;;-145.06;100.00;97809.75;10314766;28;20085;-81
2023/03/31 07:11:52;;;;;;;0.10;0.10;;;;;;;-145.06;100.00;97625.47;10350946;23;20404;-83
2023/03/31 07:16:53;;;;;;;0.10;0.10;;;;;;;-145.06;100.00;97750.38;10386500;28;20042;-84
2023/03/31 07:21:55;;;;;;;0.10;0.10;;;;;;;-145.06;100.00;97553.81;10395341;28;20034;-81
2023/03/31 07:26:55;;;;;;;0.10;0.10;;;;;;;-145.06;100.00;97273.34;10367414;28;20495;-84
2023/03/31 07:31:55;;;;;;;0.10;0.10;;;;;;;-145.06;100.00;97443.25;10365986;28;20032;-84
2023/03/31 07:36:56;;;;;;;0.10;0.10;;;;;;;-145.06;100.00;97600.91;10382061;28;20514;-84
2023/03/31 07:41:56;;;;;;;0.10;0.10;;;;;;;-145.06;100.00;97586.56;10399144;28;20488;-84
2023/03/31 07:46:57;;;;;;;0.10;0.10;;;;;;;-145.06;100.00;97760.59;10376746;28;20022;-84
2023/03/31 07:51:57;;;;;;;0.10;0.10;;;;;;;-145.06;100.00;97903.94;10403527;28;20026;-82
2023/03/31 07:57:00;;;;;;;0.10;0.10;;;;;;;-145.06;100.00;97989.94;10382163;28;20030;-84
2023/03/31 08:02:01;;;;;;;0.10;0.10;;;;;;;-145.06;100.00;97910.06;10397047;28;20030;-84
2023/03/31 08:07:01;;;;;;;0.10;0.10;;;;;;;-145.06;100.00;98125.06;10399400;28;20530;-84
2023/03/31 08:12:01;;;;;;;0.10;0.10;;;;;;;-145.06;100.00;98579.69;10376295;28;20030;-84
2023/03/31 08:17:02;;;;;;;0.10;0.10;;;;;;;-145.06;100.00;98454.75;10411303;28;20033;-84
2023/03/31 08:22:02;;;;;;;0.08;0.08;;;;;;;-145.06;100.00;98000.16;10394135;28;20034;-81
2023/03/31 08:27:03;;;;;;;0.10;0.10;;;;;;;-145.06;100.00;98665.69;10393359;28;20403;-83
2023/03/31 08:32:03;;;;;;;0.10;0.10;;;;;;;-145.06;100.00;98053.41;10405851;28;20302;-83
2023/03/31 08:37:03;;;;;;;0.10;0.10;;;;;;;-145.06;100.00;97852.75;10385319;28;20029;-81
2023/03/31 08:42:15;;;;;;;0.10;0.10;;;;;;;-145.06;100.00;97770.84;10390744;28;20044;-83
2023/03/31 08:47:21;;;;;;;0.10;0.10;;;;;;;-145.06;100.00;97844.56;10396308;28;20114;-83
2023/03/31 08:52:25;;;;;;;0.10;0.10;;;;;;;-145.06;100.00;97979.69;10401189;28;20028;-84
2023/03/31 08:57:56;;;;;;;0.10;0.10;;;;;;;-145.06;100.00;97774.94;10392204;28;20017;-85
2023/03/31 09:03:24;;;;;;;0.00;0.00;;;;;;;-145.06;100.00;97721.69;10379874;28;20075;-82
2023/03/31 09:08:37;;;;;;;0.10;0.10;;;;;;;-145.06;100.00;97506.72;10390561;28;20410;-82
2023/03/31 09:13:50;;;;;;;0.10;0.10;;;;;;;-145.06;100.00;97574.28;10367395;28;20025;-85
2023/03/31 09:18:54;;;;;;;0.10;0.10;;;;;;;-145.06;100.00;97349.09;10384358;28;20041;-85
2023/03/31 09:24:09;;;;;;;0.10;0.10;;;;;;;-145.06;100.00;97396.19;10370308;28;20118;-85
2023/03/31 09:29:18;;;;;;;0.10;0.10;;;;;;;-145.06;100.00;97504.69;10377959;28;20029;-83
2023/03/31 09:34:30;;;;;;;0.10;0.10;;;;;;;-145.06;100.00;97635.72;10391083;28;20020;-85
2023/03/31 09:39:30;;;;;;;0.10;0.10;;;;;;;-145.06;100.00;97480.13;10365742;28;20026;-83
2023/03/31 09:44:38;;;;;;;0.00;0.00;;;;;;;-145.06;100.00;97385.94;10367401;28;20096;-84
2023/03/31 09:49:41;;;;;;;0.10;0.10;;;;;;;-145.06;100.00;97351.13;10368310;28;20306;-85
2023/03/31 09:54:48;;;;;;;0.10;0.10;;;;;;;-145.06;100.00;97267.19;10393259;28;20109;-84
2023/03/31 09:59:52;;;;;;;0.10;0.10;;;;;;;-145.06;100.00;97324.53;10376551;28;20029;-85
2023/03/31 10:04:53;;;;;;;0.10;0.10;;;;;;;-145.06;100.00;97220.13;10369570;28;20026;-85
2023/03/31 10:09:55;;;;;;;0.10;0.10;;;;;;;-145.06;100.00;97211.94;10367476;28;20067;-83
2023/03/31 10:15:18;;;;;;;0.08;0.08;;;;;;;-145.06;100.00;97463.72;10391866;28;20085;-85
2023/03/31 10:20:35;;;;;;;0.10;0.10;;;;;;;-145.06;100.00;97416.66;10363906;28;20026;-84
2023/03/31 10:25:36;;;;;;;0.10;0.10;;;;;;;-145.06;100.00;97283.56;10385657;28;20515;-85
2023/03/31 10:30:38;;;;;;;0.10;0.10;;;;;;;-145.06;100.00;97199.63;10404560;28;20028;-83
2023/03/31 10:35:39;;;;;;;0.10;0.10;;;;;;;-145.06;100.00;97289.72;10388219;28;20022;-83
2023/03/31 10:40:49;;;;;;;0.10;0.10;;;;;;;-145.06;100.00;97170.97;10397315;28;20068;-82
2023/03/31 10:45:53;;;;;;;0.10;0.10;;;;;;;-145.06;100.00;97283.56;10373032;28;20029;-82
2023/03/31 10:50:57;;;;;;;;;;;;;;;-145.06;100.00;97345.00;10392373;28;20038;-81
2023/03/31 10:56:13;;;;;;;0.10;0.10;;;;;;;-145.06;100.00;97424.84;10407945;28;19917;-82
2023/03/31 11:01:35;;;;;;;0.10;0.10;;;;;;;-145.06;100.00;97361.38;10387244;28;20083;-82
2023/03/31 11:07:12;;;;;;;0.10;0.10;;;;;;;-145.06;100.00;97377.75;10389090;28;20626;-83
2023/03/31 11:12:31;;;;;;;0.10;0.10;;;;;;;-145.06;100.00;97250.81;10382940;28;20029;-82
2023/03/31 11:18:04;;;;;;;0.10;0.10;;;;;;;-145.06;100.00;97158.69;10407249;28;20524;-83
2023/03/31 11:23:21;;;;;;;0.10;0.10;;;;;;;-145.06;100.00;97510.81;10371037;28;20044;-82
2023/03/31 11:28:44;;;;;;;0.10;0.10;;;;;;;-145.06;100.00;99132.63;10409513;28;20026;-83
2023/03/31 11:33:50;;;;;;;0.10;0.10;;;;;;;-145.06;100.00;98166.03;10386579;28;20026;-82
2023/03/31 11:39:11;;;;;;;0.10;0.10;;;;;;;-145.06;100.00;97670.53;10400291;28;20059;-82
2023/03/31 11:44:15;;;;;;;0.10;0.10;;;;;;;-145.06;100.00;97785.19;10404907;28;20119;-82
2023/03/31 11:49:26;;;;;;;0.10;0.10;;;;;;;-145.06;100.00;97535.38;10413124;28;20484;-82
2023/03/31 11:54:54;;;;;;;0.10;0.10;;;;;;;-145.06;100.00;97492.41;10408638;28;20079;-80
2023/03/31 12:00:21;;;;;;;0.10;0.10;;;;;;;-145.06;100.00;97490.34;10402979;28;20025;-82
2023/03/31 12:05:25;;;;;;;0.10;0.10;;;;;;;-145.06;100.00;97660.28;10378885;28;20274;-81
2023/03/31 12:10:32;;;;;;;;;;;;;;;-145.06;100.00;98528.47;10384063;28;20096;-81
2023/03/31 12:15:47;;;;;;;0.10;0.10;;;;;;;-145.06;100.00;99372.28;10399410;28;20323;-81
2023/03/31 12:21:01;;;;;;;0.10;0.10;;;;;;;-145.06;100.00;99413.25;10394468;28;20022;-82
2023/03/31 12:26:07;;;;;;;0.10;0.10;;;;;;;-145.06;100.00;98577.63;10390451;28;20026;-82
2023/03/31 12:31:17;;;;;;;0.10;0.10;;;;;;;-145.06;100.00;97697.13;10377563;28;20167;-82
2023/03/31 12:36:24;;;;;;;0.10;0.10;;;;;;;-145.06;100.00;97746.28;10386621;28;20093;-82
2023/03/31 12:41:37;;;;;;;0.10;0.10;;;;;;;-145.06;100.00;97234.44;10373619;28;20028;-82
2023/03/31 12:46:52;;;;;;;0.10;0.10;;;;;;;-145.06;100.00;97205.78;10369835;28;20029;-83
2023/03/31 12:52:06;;;;;;;0.10;0.10;;;;;;;-145.06;100.00;97392.06;10407563;28;20022;-82
2023/03/31 12:57:06;;;;;;;0.10;0.10;;;;;;;-145.06;100.00;97463.72;10393869;28;20384;-83
2023/03/31 13:02:13;;;;;;;0.10;0.10;;;;;;;-145.06;100.00;97404.38;10396325;28;20033;-82
2023/03/31 13:07:26;;;;;;;0.10;0.10;;;;;;;-145.06;100.00;97322.47;10397440;28;20030;-83
2023/03/31 13:12:29;;;;;;;0.10;0.10;;;;;;;-145.06;100.00;97064.53;10419443;22;20073;-86
2023/03/31 13:17:36;;;;;;;0.10;0.10;;;;;;;-145.06;100.00;97160.75;10399139;28;20112;-86
2023/03/31 13:22:40;;;;;;;0.10;0.10;;;;;;;-145.06;100.00;97373.66;10403617;28;20113;-87
2023/03/31 13:27:48;;;;;;;0.10;0.10;;;;;;;-145.06;100.00;97357.28;10385730;28;20026;-86
2023/03/31 13:33:04;;;;;;;0.10;0.10;;;;;;;-145.06;100.00;97299.94;10398232;28;20034;-87
2023/03/31 13:38:12;;;;;;;0.10;0.10;;;;;;;-145.06;100.00;97246.72;10406671;28;20099;-87
2023/03/31 13:43:32;;;;;;;0.10;0.10;;;;;;;-145.06;100.00;97261.06;10389035;28;20383;-86
2023/03/31 13:48:41;;;;;;;0.10;0.10;;;;;;;-145.06;100.00;97293.81;10384162;28;20028;-86
2023/03/31 13:54:23;;;;;;;0.10;0.10;;;;;;;-145.06;100.00;97654.13;10390817;28;20022;-86
2023/03/31 13:59:43;;;;;;;0.10;0.10;;;;;;;-145.06;100.00;97873.22;10393422;28;20439;-87
2023/03/31 14:05:05;;;;;;;0.10;0.10;;;;;;;-145.06;100.00;97611.16;10374553;28;20155;-87
2023/03/31 14:10:20;;;;;;;0.10;0.10;;;;;;;-145.06;100.00;97299.94;10396135;28;20295;-86
2023/03/31 14:15:20;;;;;;;0.10;0.10;;;;;;;-145.06;100.00;97009.25;10411197;28;20056;-86
2023/03/31 14:20:33;;;;;;;0.00;0.00;;;;;;;-145.06;100.00;96898.72;10390552;28;20026;-86
2023/03/31 14:25:57;;;;;;;0.10;0.10;;;;;;;-145.06;100.00;96939.66;10401707;28;20273;-86
2023/03/31 14:31:11;;;;;;;0.10;0.10;;;;;;;-145.06;100.00;97017.44;10408878;28;20025;-86
2023/03/31 14:37:02;;;;;;;0.00;0.00;;;;;;;-145.06;100.00;97328.63;10396564;28;20114;-87
2023/03/31 14:42:11;;;;;;;0.10;0.10;;;;;;;-145.06;100.00;97867.06;10365962;28;20057;-86
2023/03/31 14:47:29;;;;;;;0.10;0.10;;;;;;;-145.06;100.00;99253.47;10385947;28;20033;-86
2023/03/31 14:52:31;;;;;;;0.00;0.00;;;;;;;-145.06;100.00;99282.16;10397147;28;20017;-86
2023/03/31 14:57:38;;;;;;;0.08;0.08;;;;;;;-145.06;100.00;99210.47;10400442;28;20048;-86
2023/03/31 15:02:44;;;;;;;0.10;0.10;;;;;;;-145.06;100.00;98870.47;10414119;28;20032;-85
2023/03/31 15:07:44;;;;;;;0.10;0.10;;;;;;;-145.06;100.00;98198.78;10392031;28;20029;-85
2023/03/31 15:12:46;;;;;;;0.10;0.10;;;;;;;-145.06;100.00;97977.66;10400943;28;20017;-85
2023/03/31 15:17:47;;;;;;;0.10;0.10;;;;;;;-145.06;100.00;97893.69;10415587;28;20038;-85
2023/03/31 15:22:47;;;;;;;0.10;0.10;;;;;;;-145.06;100.00;97731.94;10391233;28;20026;-85
2023/03/31 15:27:54;;;;;;;0.10;0.10;;;;;;;-145.06;100.00;97693.03;10418078;28;20116;-87
2023/03/31 15:32:54;;;;;;;0.10;0.10;;;;;;;-145.06;100.00;97742.19;10394161;28;20034;-85
2023/03/31 15:37:57;;;;;;;0.10;0.10;;;;;;;-145.06;100.00;98725.06;10398753;28;20469;-85
2023/03/31 15:43:06;;;;;;;0.10;0.10;;;;;;;-145.06;100.00;99077.34;10392282;28;20021;-85
2023/03/31 15:48:20;;;;;;;0.00;0.00;;;;;;;-145.06;100.00;99153.13;10391641;28;20436;-85
2023/03/31 15:53:43;;;;;;;0.10;0.10;;;;;;;-145.06;100.00;99206.38;10409551;28;20101;-85
2023/03/31 15:58:47;;;;;;;0.10;0.10;;;;;;;-145.06;100.00;99237.09;10386911;28;20126;-85
2023/03/31 16:03:51;;;;;;;0.00;0.00;;;;;;;-145.06;100.00;99257.56;10388424;28;20056;-85
2023/03/31 16:09:06;;;;;;;0.10;0.10;;;;;;;-145.06;100.00;99273.97;10401184;28;20028;-85
2023/03/31 16:14:13;;;;;;;0.10;0.10;;;;;;;-145.06;100.00;99269.88;10385527;28;20025;-85
2023/03/31 16:19:14;;;;;;;0.10;0.10;;;;;;;-145.06;100.00;99284.19;10402935;28;20127;-85
2023/03/31 16:24:15;;;;;;;0.10;0.10;;;;;;;-145.06;100.00;99302.63;10397395;28;20109;-84
2023/03/31 16:29:21;;;;;;;0.10;0.10;;;;;;;-145.06;100.00;99245.28;10403112;28;20104;-84
2023/03/31 16:34:21;;;;;;;0.00;0.00;;;;;;;-145.06;100.00;99247.34;10413124;28;20066;-84
2023/03/31 16:39:21;;;;;;;0.00;0.00;;;;;;;-145.06;100.00;99120.34;10385073;28;20013;-85
2023/03/31 16:44:21;;;;;;;0.10;0.10;;;;;;;-145.06;100.00;99032.28;10379345;28;20029;-84
2023/03/31 16:49:22;;;;;;;0.10;0.10;;;;;;;-145.06;100.00;98970.84;10382427;28;20044;-85
2023/03/31 16:54:22;;;;;;;0.10;0.10;;;;;;;-145.06;100.00;99005.66;10396919;28;20049;-85
2023/03/31 16:59:23;;;;;;;0.10;0.10;;;;;;;-145.06;100.00;99118.31;10410326;28;20037;-85
2023/03/31 17:04:24;;;;;;;0.10;0.10;;;;;;;-145.06;100.00;99255.53;10404121;28;20022;-85
2023/03/31 17:09:24;;;;;;;0.10;0.10;;;;;;;-145.06;100.00;99321.06;10374613;28;20124;-85
2023/03/31 17:14:26;;;;;;;0.10;0.10;;;;;;;-145.06;100.00;99370.22;10414751;28;20025;-85
2023/03/31 17:19:26;;;;;;;0.10;0.10;;;;;;;-145.06;100.00;99470.59;10394146;28;20522;-85
2023/03/31 17:24:26;;;;;;;0.10;0.10;;;;;;;-145.06;100.00;99458.31;10389309;28;20063;-85
2023/03/31 17:29:27;;;;;;;0.10;0.10;;;;;;;-145.06;100.00;99497.22;10408363;28;20273;-83
2023/03/31 17:34:27;;;;;;;0.00;0.00;;;;;;;-145.06;100.00;99532.03;10407615;28;20025;-84
2023/03/31 17:39:28;;;;;;;0.10;0.10;;;;;;;-145.06;100.00;99552.53;10410310;28;20033;-84
2023/03/31 17:44:28;;;;;;;0.10;0.10;;;;;;;-145.06;100.00;99548.44;10382858;28;20022;-84
2023/03/31 17:49:29;;;;;;;0.10;0.10;;;;;;;-145.06;100.00;99611.94;10399828;28;20464;-83
2023/03/31 17:54:29;;;;;;;0.10;0.10;;;;;;;-145.06;100.00;99546.38;10376504;28;20048;-83
2023/03/31 17:59:31;;;;;;;0.10;0.10;;;;;;;-145.06;100.00;99638.56;10387541;28;20049;-83
2023/03/31 18:04:31;;;;;;;0.10;0.10;;;;;;;-145.06;100.00;99587.34;10384295;28;20028;-83
2023/03/31 18:09:32;;;;;;;0.00;0.00;;;;;;;-145.06;100.00;99554.59;10403631;28;20322;-83
2023/03/31 18:14:32;;;;;;;0.10;0.10;;;;;;;-145.06;100.00;99573.00;10400378;28;20397;-83
2023/03/31 18:19:33;;;;;;;0.00;0.00;;;;;;;-145.06;100.00;99570.97;10399631;28;20024;-84
2023/03/31 18:24:35;;;;;;;0.10;0.10;;;;;;;-145.06;100.00;99626.28;10375814;28;20393;-85
2023/03/31 18:29:36;;;;;;;0.10;0.10;;;;;;;-145.06;100.00;99603.75;10399709;28;20018;-85
2023/03/31 18:34:37;;;;;;;0.10;0.10;;;;;;;-145.06;100.00;99573.00;10399991;28;20060;-84
2023/03/31 18:39:37;;;;;;;0.10;0.10;;;;;;;-145.06;100.00;99560.72;10397979;28;20595;-84
2023/03/31 18:44:38;;;;;;;0.10;0.10;;;;;;;-145.06;100.00;99585.31;10402078;28;20076;-84
2023/03/31 18:49:38;;;;;;;0.00;0.00;;;;;;;-145.06;100.00;99597.59;10402781;28;20033;-84
2023/03/31 18:54:39;;;;;;;0.10;0.10;;;;;;;-145.06;100.00;99620.13;10385493;28;20021;-84
2023/03/31 18:59:40;;;;;;;0.10;0.10;;;;;;;-145.06;100.00;99611.94;10406978;28;20053;-83
2023/03/31 19:04:40;;;;;;;0.10;0.10;;;;;;;-145.06;100.00;99609.88;10404958;28;20346;-84
2023/03/31 19:09:40;;;;;;;0.10;0.10;;;;;;;-145.06;100.00;99607.84;10406628;28;20427;-84
2023/03/31 19:14:41;;;;;;;0.10;0.10;;;;;;;-145.06;100.00;99741.00;10456168;23;20060;-91
2023/03/31 19:19:42;;;;;;;0.10;0.10;;;;;;;-145.06;100.00;99642.66;10428592;28;20027;-91
2023/03/31 19:24:43;;;;;;;0.00;0.00;;;;;;;-145.06;100.00;99618.09;10389660;28;20029;-91
2023/03/31 19:29:44;;;;;;;0.10;0.10;;;;;;;-145.06;100.00;99781.97;10413793;28;20026;-92
2023/03/31 19:34:45;;;;;;;0.08;0.08;;;;;;;-145.06;100.00;99683.63;10393024;28;20032;-92
2023/03/31 19:39:52;;;;;;;0.10;0.10;;;;;;;-145.06;100.00;99534.09;10413038;28;20041;-90
2023/03/31 19:45:01;;;;;;;0.10;0.10;;;;;;;-145.06;100.00;99595.56;10420203;28;20064;-90
2023/03/31 19:50:07;;;;;;;0.00;0.00;;;;;;;-145.06;100.00;99661.09;10416761;28;20046;-91
2023/03/31 19:55:08;;;;;;;0.00;0.00;;;;;;;-145.06;100.00;99609.88;10393383;28;20125;-89
2023/03/31 20:00:12;;;;;;;0.10;0.10;;;;;;;-145.06;100.00;99650.84;10404465;28;20495;-91
2023/03/31 20:05:13;;;;;;;0.10;0.10;;;;;;;-145.06;100.00;99646.75;10392159;28;20088;-91
2023/03/31 20:10:13;;;;;;;0.00;0.00;;;;;;;-145.06;100.00;99630.38;10382815;28;20036;-92
2023/03/31 20:15:14;;;;;;;0.00;0.00;;;;;;;-145.06;100.00;99710.25;10401292;28;20484;-91
2023/03/31 20:20:14;;;;;;;0.05;0.05;;;;;;;-145.06;100.00;99607.84;10390834;28;20129;-91
2023/03/31 20:25:15;;;;;;;0.10;0.10;;;;;;;-145.06;100.00;99577.13;10384115;28;20033;-91
2023/03/31 20:30:16;;;;;;;0.10;0.10;;;;;;;-145.06;100.00;99685.69;10379318;28;20053;-90
2023/03/31 20:35:17;;;;;;;0.10;0.10;;;;;;;-145.06;100.00;99609.88;10378117;28;20172;-91
2023/03/31 20:40:17;;;;;;;0.00;0.00;;;;;;;-145.06;100.00;99579.16;10390465;28;20025;-91
2023/03/31 20:45:17;;;;;;;0.10;0.10;;;;;;;-145.06;100.00;99693.88;10383107;28;20022;-91
2023/03/31 20:50:21;;;;;;;0.10;0.10;;;;;;;-145.06;100.00;99720.50;10383262;28;20027;-90
2023/03/31 20:55:22;;;;;;;0.00;0.00;;;;;;;-145.06;100.00;99757.38;10386920;28;20351;-90
2023/03/31 21:00:22;;;;;;;0.10;0.10;;;;;;;-145.06;100.00;99640.63;10390982;28;20112;-90
2023/03/31 21:05:23;;;;;;;0.10;0.10;;;;;;;-145.06;100.00;99654.94;10398061;28;20034;-91
2023/03/31 21:10:23;;;;;;;0.10;0.10;;;;;;;-145.06;100.00;99777.84;10379475;28;20034;-90
2023/03/31 21:15:23;;;;;;;0.00;0.00;;;;;;;-145.06;100.00;99566.88;10384895;28;20353;-91
2023/03/31 21:20:24;;;;;;;0.10;0.10;;;;;;;-145.06;100.00;99689.78;10386547;22;20033;-82
2023/03/31 21:25:25;;;;;;;0.10;0.10;;;;;;;-145.06;100.00;99736.88;10398515;28;20026;-80
2023/03/31 21:30:25;;;;;;;0.10;0.10;;;;;;;-145.06;100.00;99679.53;10389594;28;20025;-82
2023/03/31 21:35:26;;;;;;;0.10;0.10;;;;;;;-145.06;100.00;99673.38;10417829;28;20025;-81
2023/03/31 21:40:26;;;;;;;0.10;0.10;;;;;;;-145.06;100.00;99706.16;10411894;28;20081;-81
2023/03/31 21:45:27;;;;;;;0.10;0.10;;;;;;;-145.06;100.00;99700.00;10395142;28;20098;-80
2023/03/31 21:50:27;;;;;;;0.00;0.00;;;;;;;-145.06;100.00;99849.56;10405641;28;20078;-81
2023/03/31 21:55:28;;;;;;;0.10;0.10;;;;;;;-145.06;100.00;99741.00;10406625;28;20026;-82
2023/03/31 22:00:29;;;;;;;0.10;0.10;;;;;;;-145.06;100.00;99683.63;10391821;28;20014;-79
2023/03/31 22:05:31;;;;;;;0.10;0.10;;;;;;;-145.06;100.00;99728.69;10388738;28;20026;-81
2023/03/31 22:10:32;;;;;;;0.10;0.10;;;;;;;-145.06;100.00;99751.22;10412416;28;20032;-83
2023/03/31 22:15:32;;;;;;;0.10;0.10;;;;;;;-145.06;100.00;99708.22;10406661;28;20171;-83
2023/03/31 22:20:32;;;;;;;0.00;0.00;;;;;;;-145.06;100.00;99722.56;10392327;28;20053;-83
2023/03/31 22:25:33;;;;;;;0.00;0.00;;;;;;;-145.06;100.00;99724.59;10388018;28;20289;-83
2023/03/31 22:30:34;;;;;;;0.00;0.00;;;;;;;-145.06;100.00;99726.66;10418829;28;20029;-83
2023/03/31 22:35:34;;;;;;;0.10;0.10;;;;;;;-145.06;100.00;99738.94;10403003;28;20013;-80
2023/03/31 22:40:35;;;;;;;0.10;0.10;;;;;;;-145.06;100.00;99753.28;10412878;28;20049;-79
2023/03/31 22:45:36;;;;;;;0.10;0.10;;;;;;;-145.06;100.00;99700.00;10399259;28;20049;-83
2023/03/31 22:50:39;;;;;;;0.10;0.10;;;;;;;-145.06;100.00;99738.94;10417846;28;20021;-81